createdAt,value
2019-05-13T00:00:20.255Z,91.92
2019-05-13T00:01:20.170Z,92.02
2019-05-13T00:02:20.259Z,92.23
2019-05-13T00:03:20.148Z,92.13
2019-05-13T00:04:20.148Z,91.92
2019-05-13T00:05:20.129Z,92.02
2019-05-13T00:06:20.139Z,92.13
2019-05-13T00:07:20.154Z,91.82
2019-05-13T00:08:21.839Z,91.71
2019-05-13T00:09:20.088Z,91.71
2019-05-13T00:10:20.100Z,91.82
2019-05-13T00:11:20.096Z,91.40
2019-05-13T00:12:20.058Z,91.30
2019-05-13T00:13:20.040Z,91.50
2019-05-13T00:14:20.047Z,91.71
2019-05-13T00:15:20.017Z,91.50
2019-05-13T00:16:20.051Z,91.50
2019-05-13T00:17:20.031Z,91.30
2019-05-13T00:18:19.985Z,91.30
2019-05-13T00:19:19.977Z,91.40
2019-05-13T00:20:19.969Z,91.30
2019-05-13T00:21:19.957Z,91.09
2019-05-13T00:22:19.965Z,91.20
2019-05-13T00:23:19.934Z,91.30
2019-05-13T00:24:19.926Z,91.20
2019-05-13T00:25:19.916Z,91.30
2019-05-13T00:26:19.907Z,91.40
2019-05-13T00:27:19.918Z,91.09
2019-05-13T00:28:19.883Z,90.99
2019-05-13T00:29:19.882Z,90.78
2019-05-13T00:30:19.856Z,91.09
2019-05-13T00:31:19.877Z,91.30
2019-05-13T00:32:19.848Z,91.30
2019-05-13T00:33:19.835Z,91.20
2019-05-13T00:34:19.844Z,91.50
2019-05-13T00:35:19.807Z,91.71
2019-05-13T00:36:20.636Z,91.92
2019-05-13T00:37:20.091Z,92.13
2019-05-13T00:38:19.796Z,92.02
2019-05-13T00:39:19.779Z,91.82
2019-05-13T00:40:19.766Z,91.61
2019-05-13T00:41:19.752Z,91.82
2019-05-13T00:42:19.732Z,92.02
2019-05-13T00:43:19.735Z,92.02
2019-05-13T00:44:19.715Z,92.02
2019-05-13T00:45:19.709Z,92.02
2019-05-13T00:46:19.703Z,92.13
2019-05-13T00:47:19.672Z,92.13
2019-05-13T00:48:19.685Z,92.13
2019-05-13T00:49:19.655Z,92.23
2019-05-13T00:50:19.647Z,92.33
2019-05-13T00:51:19.625Z,92.33
2019-05-13T00:52:19.616Z,92.44
2019-05-13T00:53:19.634Z,92.44
2019-05-13T00:54:19.616Z,92.23
2019-05-13T00:55:19.603Z,92.33
2019-05-13T00:56:19.584Z,92.54
2019-05-13T00:57:19.565Z,92.64
2019-05-13T00:58:19.558Z,92.74
2019-05-13T00:59:19.566Z,92.64
2019-05-13T01:00:19.550Z,92.44
2019-05-13T01:01:19.535Z,92.54
2019-05-13T01:02:19.515Z,92.54
2019-05-13T01:03:19.512Z,92.54
2019-05-13T01:04:19.527Z,92.33
2019-05-13T01:05:19.488Z,92.23
2019-05-13T01:06:19.490Z,92.33
2019-05-13T01:07:25.958Z,92.13
2019-05-13T01:08:20.455Z,92.02
2019-05-13T01:09:19.454Z,92.02
2019-05-13T01:10:19.444Z,92.23
2019-05-13T01:11:19.437Z,92.23
2019-05-13T01:12:19.444Z,92.02
2019-05-13T01:13:19.399Z,91.92
2019-05-13T01:14:19.387Z,91.75
2019-05-13T01:15:19.394Z,91.96
2019-05-13T01:16:19.364Z,91.96
2019-05-13T01:17:19.347Z,92.17
2019-05-13T01:18:19.353Z,92.17
2019-05-13T01:19:19.328Z,92.07
2019-05-13T01:20:19.346Z,92.27
2019-05-13T01:21:19.299Z,92.48
2019-05-13T01:22:19.307Z,92.48
2019-05-13T01:23:19.286Z,91.96
2019-05-13T01:24:19.268Z,91.96
2019-05-13T01:25:19.302Z,91.86
2019-05-13T01:26:19.261Z,91.55
2019-05-13T01:27:19.245Z,91.34
2019-05-13T01:28:19.245Z,91.34
2019-05-13T01:29:19.214Z,91.34
2019-05-13T01:30:19.224Z,90.93
2019-05-13T01:31:19.216Z,91.03
2019-05-13T01:32:19.190Z,90.93
2019-05-13T01:33:19.164Z,91.03
2019-05-13T01:34:19.175Z,91.24
2019-05-13T01:35:19.153Z,91.34
2019-05-13T01:36:19.465Z,91.44
2019-05-13T01:37:19.125Z,91.65
2019-05-13T01:38:19.128Z,91.86
2019-05-13T01:39:19.104Z,92.07
2019-05-13T01:40:19.101Z,91.75
2019-05-13T01:41:19.104Z,91.65
2019-05-13T01:42:19.103Z,91.75
2019-05-13T01:43:19.068Z,91.65
2019-05-13T01:44:19.079Z,91.34
2019-05-13T01:45:19.042Z,91.13
2019-05-13T01:46:19.043Z,91.34
2019-05-13T01:47:19.033Z,91.44
2019-05-13T01:48:19.011Z,91.34
2019-05-13T01:49:19.014Z,91.34
2019-05-13T01:50:18.992Z,91.55
2019-05-13T01:51:18.982Z,91.34
2019-05-13T01:52:18.995Z,91.24
2019-05-13T01:53:18.962Z,91.34
2019-05-13T01:54:19.002Z,91.24
2019-05-13T01:55:18.935Z,91.34
2019-05-13T01:56:18.927Z,91.44
2019-05-13T01:57:18.931Z,91.65
2019-05-13T01:58:18.912Z,91.65
2019-05-13T01:59:18.890Z,91.75
2019-05-13T02:00:18.907Z,91.65
2019-05-13T02:01:18.871Z,91.75
2019-05-13T02:02:18.889Z,91.75
2019-05-13T02:03:18.849Z,91.96
2019-05-13T02:04:18.850Z,92.07
2019-05-13T02:05:18.841Z,92.07
2019-05-13T02:06:18.811Z,91.96
2019-05-13T02:07:19.510Z,91.96
2019-05-13T02:08:18.813Z,91.86
2019-05-13T02:09:18.779Z,92.07
2019-05-13T02:10:18.771Z,91.75
2019-05-13T02:11:18.760Z,91.65
2019-05-13T02:12:18.750Z,91.55
2019-05-13T02:13:18.761Z,91.24
2019-05-13T02:14:18.728Z,91.34
2019-05-13T02:15:18.730Z,91.44
2019-05-13T02:16:18.713Z,91.24
2019-05-13T02:17:18.698Z,91.13
2019-05-13T02:18:18.710Z,91.13
2019-05-13T02:19:18.669Z,91.44
2019-05-13T02:20:18.659Z,91.65
2019-05-13T02:21:18.652Z,91.86
2019-05-13T02:22:18.636Z,91.86
2019-05-13T02:23:18.650Z,91.75
2019-05-13T02:24:18.617Z,91.86
2019-05-13T02:25:18.606Z,91.65
2019-05-13T02:26:18.593Z,91.34
2019-05-13T02:27:18.606Z,91.13
2019-05-13T02:28:18.604Z,90.93
2019-05-13T02:29:18.569Z,91.13
2019-05-13T02:30:18.549Z,91.13
2019-05-13T02:31:26.784Z,91.24
2019-05-13T02:32:19.530Z,91.13
2019-05-13T02:33:18.553Z,91.24
2019-05-13T02:34:18.515Z,91.44
2019-05-13T02:35:18.515Z,91.03
2019-05-13T02:36:18.492Z,90.83
2019-05-13T02:37:18.473Z,91.03
2019-05-13T02:38:28.330Z,90.83
2019-05-13T02:39:22.189Z,90.93
2019-05-13T02:40:18.450Z,91.13
2019-05-13T02:41:18.430Z,90.83
2019-05-13T02:42:18.430Z,90.72
2019-05-13T02:43:18.428Z,91.03
2019-05-13T02:44:18.397Z,91.13
2019-05-13T02:45:18.378Z,91.24
2019-05-13T02:46:18.385Z,91.44
2019-05-13T02:47:18.447Z,91.55
2019-05-13T02:48:18.368Z,91.65
2019-05-13T02:49:18.358Z,91.34
2019-05-13T02:50:18.370Z,91.13
2019-05-13T02:51:18.317Z,90.72
2019-05-13T02:52:26.072Z,90.20
2019-05-13T02:53:28.186Z,90.20
2019-05-13T02:54:26.058Z,89.59
2019-05-13T02:55:27.733Z,89.17
2019-05-13T02:56:26.031Z,89.28
2019-05-13T02:57:18.254Z,89.79
2019-05-13T02:58:18.245Z,89.48
2019-05-13T02:59:18.254Z,89.59
2019-05-13T03:00:18.250Z,89.48
2019-05-13T03:01:18.233Z,89.79
2019-05-13T03:02:18.204Z,89.89
2019-05-13T03:03:18.201Z,89.69
2019-05-13T03:04:18.176Z,89.89
2019-05-13T03:05:18.352Z,89.69
2019-05-13T03:06:18.164Z,89.69
2019-05-13T03:07:18.154Z,89.89
2019-05-13T03:08:33.957Z,90.31
2019-05-13T03:09:19.137Z,90.20
2019-05-13T03:10:18.122Z,90.20
2019-05-13T03:11:18.135Z,90.41
2019-05-13T03:12:18.109Z,90.41
2019-05-13T03:13:18.149Z,90.20
2019-05-13T03:14:18.072Z,90.31
2019-05-13T03:15:18.064Z,90.41
2019-05-13T03:16:18.375Z,90.52
2019-05-13T03:17:18.031Z,89.79
2019-05-13T03:18:18.031Z,90.10
2019-05-13T03:19:18.049Z,90.20
2019-05-13T03:20:18.012Z,90.41
2019-05-13T03:21:18.044Z,90.72
2019-05-13T03:22:17.992Z,90.93
2019-05-13T03:23:17.973Z,91.03
2019-05-13T03:24:17.969Z,91.03
2019-05-13T03:25:17.951Z,91.13
2019-05-13T03:26:18.001Z,91.24
2019-05-13T03:27:20.681Z,91.44
2019-05-13T03:28:22.050Z,91.55
2019-05-13T03:29:17.910Z,91.44
2019-05-13T03:30:17.898Z,91.34
2019-05-13T03:31:18.118Z,91.34
2019-05-13T03:32:17.871Z,91.44
2019-05-13T03:33:19.855Z,91.44
2019-05-13T03:34:18.860Z,91.34
2019-05-13T03:35:17.843Z,91.24
2019-05-13T03:36:18.486Z,91.13
2019-05-13T03:37:17.835Z,91.44
2019-05-13T03:38:17.809Z,91.55
2019-05-13T03:39:17.791Z,91.34
2019-05-13T03:40:17.794Z,91.34
2019-05-13T03:41:17.800Z,91.34
2019-05-13T03:42:17.760Z,91.13
2019-05-13T03:43:18.433Z,91.24
2019-05-13T03:44:23.225Z,91.24
2019-05-13T03:45:17.738Z,91.03
2019-05-13T03:46:17.749Z,91.24
2019-05-13T03:47:17.719Z,91.24
2019-05-13T03:48:17.719Z,91.55
2019-05-13T03:49:17.700Z,91.75
2019-05-13T03:50:17.686Z,91.55
2019-05-13T03:51:17.692Z,91.34
2019-05-13T03:52:17.677Z,90.83
2019-05-13T03:53:17.654Z,90.72
2019-05-13T03:54:17.637Z,90.62
2019-05-13T03:55:17.639Z,90.72
2019-05-13T03:56:17.617Z,90.62
2019-05-13T03:57:17.630Z,90.83
2019-05-13T03:58:17.596Z,90.72
2019-05-13T03:59:17.632Z,90.72
2019-05-13T04:00:17.585Z,90.72
2019-05-13T04:01:17.571Z,90.72
2019-05-13T04:02:17.600Z,90.83
2019-05-13T04:03:17.538Z,91.03
2019-05-13T04:04:17.531Z,91.44
2019-05-13T04:05:17.538Z,91.44
2019-05-13T04:06:17.542Z,91.34
2019-05-13T04:07:17.528Z,91.55
2019-05-13T04:08:17.477Z,91.40
2019-05-13T04:09:27.586Z,91.34
2019-05-13T04:10:18.497Z,91.34
2019-05-13T04:11:17.483Z,91.24
2019-05-13T04:12:17.506Z,91.34
2019-05-13T04:13:17.426Z,91.40
2019-05-13T04:14:17.435Z,91.50
2019-05-13T04:15:17.415Z,91.40
2019-05-13T04:16:17.405Z,91.61
2019-05-13T04:17:17.411Z,91.61
2019-05-13T04:18:17.395Z,91.40
2019-05-13T04:19:17.367Z,91.40
2019-05-13T04:20:17.412Z,91.30
2019-05-13T04:21:17.357Z,91.20
2019-05-13T04:22:17.336Z,90.78
2019-05-13T04:23:17.392Z,90.26
2019-05-13T04:24:17.312Z,89.75
2019-05-13T04:25:17.304Z,89.95
2019-05-13T04:26:17.302Z,89.54
2019-05-13T04:27:17.365Z,89.23
2019-05-13T04:28:17.314Z,89.44
2019-05-13T04:29:17.256Z,89.44
2019-05-13T04:30:17.253Z,89.34
2019-05-13T04:31:17.259Z,89.75
2019-05-13T04:32:17.225Z,90.02
2019-05-13T04:33:17.235Z,90.22
2019-05-13T04:34:17.233Z,90.12
2019-05-13T04:35:17.243Z,90.12
2019-05-13T04:36:17.186Z,90.33
2019-05-13T04:37:17.162Z,90.02
2019-05-13T04:38:17.165Z,88.78
2019-05-13T04:39:35.191Z,88.78
2019-05-13T04:40:18.140Z,88.68
2019-05-13T04:41:17.143Z,89.29
2019-05-13T04:42:17.123Z,89.29
2019-05-13T04:43:17.120Z,88.98
2019-05-13T04:44:17.109Z,88.53
2019-05-13T04:45:17.082Z,88.02
2019-05-13T04:46:17.080Z,88.12
2019-05-13T04:47:17.058Z,87.92
2019-05-13T04:48:17.041Z,88.02
2019-05-13T04:49:18.054Z,87.81
2019-05-13T04:50:17.051Z,88.12
2019-05-13T04:51:17.021Z,87.60
2019-05-13T04:52:17.002Z,87.81
2019-05-13T04:53:17.010Z,88.02
2019-05-13T04:54:17.009Z,87.66
2019-05-13T04:55:16.964Z,87.77
2019-05-13T04:56:16.961Z,87.15
2019-05-13T04:57:16.951Z,86.43
2019-05-13T04:58:16.941Z,85.60
2019-05-13T04:59:16.944Z,85.81
2019-05-13T05:00:16.973Z,86.22
2019-05-13T05:01:16.906Z,86.12
2019-05-13T05:02:16.894Z,86.02
2019-05-13T05:03:22.369Z,86.32
2019-05-13T05:04:24.462Z,86.94
2019-05-13T05:05:18.652Z,86.60
2019-05-13T05:06:16.851Z,85.09
2019-05-13T05:07:16.849Z,85.36
2019-05-13T05:08:16.830Z,84.84
2019-05-13T05:09:16.823Z,84.84
2019-05-13T05:10:29.098Z,84.94
2019-05-13T05:11:17.810Z,85.46
2019-05-13T05:12:16.782Z,85.73
2019-05-13T05:13:16.769Z,84.59
2019-05-13T05:14:16.761Z,84.29
2019-05-13T05:15:16.769Z,84.08
2019-05-13T05:16:16.760Z,83.47
2019-05-13T05:17:16.727Z,83.67
2019-05-13T05:18:16.731Z,83.67
2019-05-13T05:19:16.704Z,84.08
2019-05-13T05:20:16.848Z,82.33
2019-05-13T05:21:16.727Z,81.71
2019-05-13T05:22:16.689Z,81.81
2019-05-13T05:23:16.666Z,82.64
2019-05-13T05:24:16.658Z,82.81
2019-05-13T05:25:16.639Z,80.85
2019-05-13T05:26:16.699Z,80.95
2019-05-13T05:27:16.635Z,79.72
2019-05-13T05:28:16.611Z,80.65
2019-05-13T05:29:16.602Z,80.23
2019-05-13T05:30:16.587Z,80.85
2019-05-13T05:31:16.587Z,80.65
2019-05-13T05:32:16.613Z,81.47
2019-05-13T05:33:16.582Z,81.23
2019-05-13T05:34:16.550Z,82.15
2019-05-13T05:35:16.547Z,81.23
2019-05-13T05:36:16.525Z,77.93
2019-05-13T05:37:16.528Z,77.62
2019-05-13T05:38:16.517Z,77.72
2019-05-13T05:39:16.477Z,77.11
2019-05-13T05:40:28.043Z,77.42
2019-05-13T05:41:17.468Z,77.83
2019-05-13T05:42:16.476Z,77.83
2019-05-13T05:43:16.440Z,78.72
2019-05-13T05:44:16.428Z,77.69
2019-05-13T05:45:16.436Z,76.97
2019-05-13T05:46:16.445Z,76.35
2019-05-13T05:47:16.424Z,77.17
2019-05-13T05:48:16.391Z,75.63
2019-05-13T05:49:16.388Z,75.73
2019-05-13T05:50:16.360Z,75.32
2019-05-13T05:51:16.363Z,74.29
2019-05-13T05:52:26.233Z,73.16
2019-05-13T05:53:16.336Z,74.26
2019-05-13T05:54:16.316Z,73.74
2019-05-13T05:55:16.317Z,74.05
2019-05-13T05:56:16.298Z,74.77
2019-05-13T05:57:16.339Z,73.95
2019-05-13T05:58:16.303Z,74.87
2019-05-13T05:59:16.273Z,74.98
2019-05-13T06:00:16.246Z,74.63
2019-05-13T06:01:16.241Z,74.33
2019-05-13T06:02:16.272Z,72.06
2019-05-13T06:03:16.251Z,74.02
2019-05-13T06:04:16.204Z,71.75
2019-05-13T06:05:16.287Z,71.86
2019-05-13T06:06:16.188Z,71.66
2019-05-13T06:07:16.197Z,72.34
2019-05-13T06:08:17.886Z,72.44
2019-05-13T06:09:16.155Z,72.65
2019-05-13T06:10:16.172Z,71.51
2019-05-13T06:11:16.203Z,73.06
2019-05-13T06:12:16.131Z,72.03
2019-05-13T06:13:16.134Z,71.00
2019-05-13T06:14:16.125Z,71.31
2019-05-13T06:15:16.103Z,70.97
2019-05-13T06:16:16.088Z,70.25
2019-05-13T06:17:16.074Z,69.15
2019-05-13T06:18:16.085Z,70.28
2019-05-13T06:19:17.868Z,71.00
2019-05-13T06:20:16.034Z,70.08
2019-05-13T06:21:16.025Z,70.70
2019-05-13T06:22:16.013Z,70.79
2019-05-13T06:23:16.024Z,70.59
2019-05-13T06:24:16.032Z,69.87
2019-05-13T06:25:15.995Z,69.64
2019-05-13T06:26:15.968Z,69.84
2019-05-13T06:27:16.042Z,70.76
2019-05-13T06:28:15.949Z,70.66
2019-05-13T06:29:15.954Z,70.32
2019-05-13T06:30:15.946Z,69.91
2019-05-13T06:31:15.917Z,69.09
2019-05-13T06:32:22.454Z,68.37
2019-05-13T06:33:16.884Z,69.09
2019-05-13T06:34:15.924Z,71.31
2019-05-13T06:35:15.871Z,70.60
2019-05-13T06:36:15.884Z,68.24
2019-05-13T06:37:15.869Z,66.83
2019-05-13T06:38:15.844Z,66.63
2019-05-13T06:39:16.147Z,65.80
2019-05-13T06:40:15.812Z,66.76
2019-05-13T06:41:15.802Z,66.86
2019-05-13T06:42:15.792Z,67.38
2019-05-13T06:43:15.775Z,67.68
2019-05-13T06:44:15.802Z,67.68
2019-05-13T06:45:15.782Z,67.38
2019-05-13T06:46:15.759Z,67.89
2019-05-13T06:47:15.744Z,68.57
2019-05-13T06:48:15.746Z,66.73
2019-05-13T06:49:15.749Z,66.31
2019-05-13T06:50:15.711Z,66.11
2019-05-13T06:51:15.693Z,66.93
2019-05-13T06:52:15.711Z,67.14
2019-05-13T06:53:15.662Z,67.55
2019-05-13T06:54:15.713Z,68.44
2019-05-13T06:55:15.694Z,68.44
2019-05-13T06:56:15.631Z,68.82
2019-05-13T06:57:15.620Z,68.72
2019-05-13T06:58:15.613Z,67.59
2019-05-13T06:59:15.639Z,66.77
2019-05-13T07:00:15.601Z,67.32
2019-05-13T07:01:15.594Z,67.62
2019-05-13T07:02:15.584Z,68.03
2019-05-13T07:03:15.558Z,67.93
2019-05-13T07:04:15.549Z,67.41
2019-05-13T07:05:16.461Z,67.41
2019-05-13T07:06:15.531Z,67.62
2019-05-13T07:07:17.359Z,68.03
2019-05-13T07:08:15.506Z,67.32
2019-05-13T07:09:15.490Z,67.03
2019-05-13T07:10:15.471Z,67.96
2019-05-13T07:11:21.120Z,68.54
2019-05-13T07:12:16.511Z,69.26
2019-05-13T07:13:15.440Z,67.72
2019-05-13T07:14:15.430Z,68.21
2019-05-13T07:15:15.444Z,68.21
2019-05-13T07:16:15.487Z,69.02
2019-05-13T07:17:15.422Z,68.48
2019-05-13T07:18:16.385Z,66.25
2019-05-13T07:19:15.397Z,66.46
2019-05-13T07:20:15.394Z,67.08
2019-05-13T07:21:15.380Z,68.17
2019-05-13T07:22:15.349Z,67.05
2019-05-13T07:23:15.347Z,66.94
2019-05-13T07:24:15.319Z,66.60
2019-05-13T07:25:15.309Z,65.68
2019-05-13T07:26:15.330Z,65.48
2019-05-13T07:27:15.307Z,66.60
2019-05-13T07:28:15.292Z,67.08
2019-05-13T07:29:15.682Z,66.16
2019-05-13T07:30:15.279Z,65.65
2019-05-13T07:31:15.275Z,64.94
2019-05-13T07:32:15.258Z,65.78
2019-05-13T07:33:15.229Z,66.40
2019-05-13T07:34:15.209Z,65.17
2019-05-13T07:35:15.220Z,66.60
2019-05-13T07:36:15.190Z,66.22
2019-05-13T07:37:15.216Z,66.02
2019-05-13T07:38:15.202Z,65.37
2019-05-13T07:39:15.157Z,66.19
2019-05-13T07:40:15.148Z,64.83
2019-05-13T07:41:15.140Z,64.12
2019-05-13T07:42:15.150Z,64.18
2019-05-13T07:43:15.127Z,63.26
2019-05-13T07:44:15.118Z,62.24
2019-05-13T07:45:15.097Z,62.14
2019-05-13T07:46:15.091Z,62.35
2019-05-13T07:47:15.981Z,62.04
2019-05-13T07:48:20.983Z,62.04
2019-05-13T07:49:16.048Z,61.83
2019-05-13T07:50:15.037Z,62.04
2019-05-13T07:51:15.037Z,61.93
2019-05-13T07:52:15.018Z,61.52
2019-05-13T07:53:18.682Z,61.50
2019-05-13T07:54:14.996Z,61.09
2019-05-13T07:55:14.997Z,61.50
2019-05-13T07:56:14.995Z,61.91
2019-05-13T07:57:14.970Z,61.29
2019-05-13T07:58:14.974Z,61.40
2019-05-13T07:59:14.955Z,62.01
2019-05-13T08:00:14.931Z,61.80
2019-05-13T08:01:14.918Z,62.62
2019-05-13T08:02:14.907Z,62.11
2019-05-13T08:03:14.914Z,62.85
2019-05-13T08:04:22.543Z,63.06
2019-05-13T08:05:15.870Z,62.76
2019-05-13T08:06:14.870Z,62.96
2019-05-13T08:07:14.867Z,63.68
2019-05-13T08:08:14.861Z,63.06
2019-05-13T08:09:14.861Z,63.37
2019-05-13T08:10:14.829Z,63.98
2019-05-13T08:11:14.808Z,64.29
2019-05-13T08:12:14.957Z,62.76
2019-05-13T08:13:14.811Z,63.57
2019-05-13T08:14:14.798Z,62.96
2019-05-13T08:15:14.806Z,62.42
2019-05-13T08:16:14.757Z,62.52
2019-05-13T08:17:14.744Z,61.70
2019-05-13T08:18:14.726Z,60.47
2019-05-13T08:19:14.765Z,59.96
2019-05-13T08:20:14.717Z,60.27
2019-05-13T08:21:14.723Z,60.37
2019-05-13T08:22:14.690Z,59.96
2019-05-13T08:23:14.697Z,59.55
2019-05-13T08:24:14.678Z,59.94
2019-05-13T08:25:14.675Z,60.03
2019-05-13T08:26:14.649Z,59.12
2019-05-13T08:27:14.638Z,60.24
2019-05-13T08:28:14.627Z,59.53
2019-05-13T08:29:14.607Z,58.98
2019-05-13T08:30:17.959Z,58.89
2019-05-13T08:31:14.596Z,58.37
2019-05-13T08:32:14.642Z,58.78
2019-05-13T08:33:14.556Z,58.98
2019-05-13T08:34:14.546Z,58.58
2019-05-13T08:35:16.237Z,58.89
2019-05-13T08:36:14.539Z,58.07
2019-05-13T08:37:14.516Z,58.17
2019-05-13T08:38:14.510Z,58.68
2019-05-13T08:39:14.499Z,58.98
2019-05-13T08:40:14.505Z,58.17
2019-05-13T08:41:19.098Z,58.37
2019-05-13T08:42:19.635Z,57.76
2019-05-13T08:43:15.446Z,58.04
2019-05-13T08:44:14.440Z,57.73
2019-05-13T08:45:14.462Z,58.04
2019-05-13T08:46:14.448Z,58.32
2019-05-13T08:47:14.414Z,57.91
2019-05-13T08:48:14.406Z,57.60
2019-05-13T08:49:14.395Z,57.81
2019-05-13T08:50:14.404Z,58.11
2019-05-13T08:51:14.384Z,58.32
2019-05-13T08:52:14.474Z,58.52
2019-05-13T08:53:14.351Z,59.27
2019-05-13T08:54:14.330Z,59.47
2019-05-13T08:55:16.262Z,59.37
2019-05-13T08:56:14.335Z,59.44
2019-05-13T08:57:14.296Z,59.14
2019-05-13T08:58:14.295Z,58.11
2019-05-13T08:59:14.280Z,57.98
2019-05-13T09:00:14.265Z,57.78
2019-05-13T09:01:14.275Z,57.86
2019-05-13T09:02:14.257Z,58.64
2019-05-13T09:03:14.241Z,58.44
2019-05-13T09:04:14.219Z,57.12
2019-05-13T09:05:14.233Z,57.73
2019-05-13T09:06:14.237Z,56.99
2019-05-13T09:07:14.280Z,55.89
2019-05-13T09:08:14.195Z,56.02
2019-05-13T09:09:14.167Z,56.12
2019-05-13T09:10:14.188Z,56.56
2019-05-13T09:11:14.169Z,57.37
2019-05-13T09:12:28.543Z,57.48
2019-05-13T09:13:15.125Z,57.98
2019-05-13T09:14:14.122Z,57.98
2019-05-13T09:15:14.115Z,57.98
2019-05-13T09:16:14.143Z,57.37
2019-05-13T09:17:14.086Z,57.55
2019-05-13T09:18:14.073Z,57.45
2019-05-13T09:19:16.171Z,56.53
2019-05-13T09:20:14.055Z,56.02
2019-05-13T09:21:14.068Z,56.84
2019-05-13T09:22:14.024Z,55.71
2019-05-13T09:23:14.006Z,55.00
2019-05-13T09:24:24.538Z,54.39
2019-05-13T09:25:14.998Z,53.06
2019-05-13T09:26:14.011Z,53.57
2019-05-13T09:27:13.965Z,52.55
2019-05-13T09:28:14.009Z,53.27
2019-05-13T09:29:13.956Z,53.67
2019-05-13T09:30:13.934Z,53.67
2019-05-13T09:31:13.958Z,53.08
2019-05-13T09:32:13.952Z,51.57
2019-05-13T09:33:13.915Z,52.93
2019-05-13T09:34:13.912Z,53.64
2019-05-13T09:35:13.908Z,54.36
2019-05-13T09:36:14.395Z,54.80
2019-05-13T09:37:13.874Z,55.10
2019-05-13T09:38:13.884Z,55.62
2019-05-13T09:39:13.834Z,56.23
2019-05-13T09:40:13.851Z,56.23
2019-05-13T09:41:13.832Z,56.84
2019-05-13T09:42:13.917Z,56.63
2019-05-13T09:43:13.795Z,56.63
2019-05-13T09:44:13.795Z,56.94
2019-05-13T09:45:13.788Z,55.41
2019-05-13T09:46:13.766Z,56.20
2019-05-13T09:47:13.765Z,55.79
2019-05-13T09:48:13.757Z,55.28
2019-05-13T09:49:19.745Z,54.03
2019-05-13T09:50:28.297Z,53.72
2019-05-13T09:51:14.704Z,54.31
2019-05-13T09:52:13.718Z,54.39
2019-05-13T09:53:13.714Z,52.55
2019-05-13T09:54:13.679Z,53.16
2019-05-13T09:55:24.795Z,52.32
2019-05-13T09:56:14.646Z,52.65
2019-05-13T09:57:13.654Z,51.84
2019-05-13T09:58:13.656Z,50.81
2019-05-13T09:59:13.615Z,50.92
2019-05-13T10:00:13.617Z,51.53
2019-05-13T10:01:13.619Z,49.69
2019-05-13T10:02:13.602Z,49.00
2019-05-13T10:03:14.201Z,50.15
2019-05-13T10:04:13.554Z,50.15
2019-05-13T10:05:13.552Z,50.76
2019-05-13T10:06:13.536Z,49.92
2019-05-13T10:07:13.561Z,50.04
2019-05-13T10:08:13.550Z,49.71
2019-05-13T10:09:13.511Z,49.90
2019-05-13T10:10:13.485Z,49.79
2019-05-13T10:11:13.486Z,50.38
2019-05-13T10:12:13.485Z,49.54
2019-05-13T10:13:15.715Z,48.50
2019-05-13T10:14:13.455Z,47.08
2019-05-13T10:15:13.458Z,46.67
2019-05-13T10:16:13.425Z,47.36
2019-05-13T10:17:13.467Z,47.26
2019-05-13T10:18:13.452Z,46.34
2019-05-13T10:19:13.397Z,46.95
2019-05-13T10:20:13.384Z,47.08
2019-05-13T10:21:13.388Z,48.22
2019-05-13T10:22:13.385Z,49.24
2019-05-13T10:23:13.353Z,48.24
2019-05-13T10:24:13.344Z,49.05
2019-05-13T10:25:13.326Z,48.96
2019-05-13T10:26:14.520Z,48.36
2019-05-13T10:27:13.324Z,48.47
2019-05-13T10:28:13.405Z,47.67
2019-05-13T10:29:13.296Z,47.47
2019-05-13T10:30:13.274Z,48.72
2019-05-13T10:31:13.266Z,48.31
2019-05-13T10:32:13.298Z,49.13
2019-05-13T10:33:13.336Z,49.02
2019-05-13T10:34:14.240Z,50.89
2019-05-13T10:35:13.226Z,49.33
2019-05-13T10:36:13.224Z,49.84
2019-05-13T10:37:13.218Z,49.25
2019-05-13T10:38:13.588Z,50.48
2019-05-13T10:39:13.186Z,50.04
2019-05-13T10:40:13.182Z,50.15
2019-05-13T10:41:13.159Z,49.66
2019-05-13T10:42:13.169Z,48.84
2019-05-13T10:43:29.905Z,49.25
2019-05-13T10:44:14.128Z,49.46
2019-05-13T10:45:13.128Z,49.68
2019-05-13T10:46:13.117Z,49.76
2019-05-13T10:47:13.116Z,49.76
2019-05-13T10:48:13.607Z,49.17
2019-05-13T10:49:13.084Z,49.48
2019-05-13T10:50:13.054Z,49.38
2019-05-13T10:51:13.275Z,49.35
2019-05-13T10:52:13.052Z,48.43
2019-05-13T10:53:13.042Z,49.05
2019-05-13T10:54:13.033Z,49.43
2019-05-13T10:55:13.138Z,48.41
2019-05-13T10:56:12.984Z,48.69
2019-05-13T10:57:13.639Z,47.78
2019-05-13T10:58:12.987Z,46.94
2019-05-13T10:59:12.975Z,46.83
2019-05-13T11:00:12.943Z,47.32
2019-05-13T11:01:12.933Z,48.03
2019-05-13T11:02:13.504Z,47.09
2019-05-13T11:03:12.938Z,47.09
2019-05-13T11:04:13.634Z,47.09
2019-05-13T11:05:12.893Z,47.50
2019-05-13T11:06:12.882Z,47.42
2019-05-13T11:07:12.864Z,47.63
2019-05-13T11:08:12.853Z,47.40
2019-05-13T11:09:13.269Z,46.18
2019-05-13T11:10:13.554Z,45.26
2019-05-13T11:11:13.389Z,45.85
2019-05-13T11:12:12.823Z,46.15
2019-05-13T11:13:12.798Z,46.67
2019-05-13T11:14:15.431Z,47.08
2019-05-13T11:15:12.782Z,47.17
2019-05-13T11:16:12.775Z,47.87
2019-05-13T11:17:13.354Z,48.27
2019-05-13T11:18:18.990Z,47.87
2019-05-13T11:19:13.751Z,48.07
2019-05-13T11:20:12.732Z,47.05
2019-05-13T11:21:13.169Z,46.64
2019-05-13T11:22:12.711Z,45.24
2019-05-13T11:23:12.749Z,45.36
2019-05-13T11:24:12.963Z,45.47
2019-05-13T11:25:12.694Z,44.45
2019-05-13T11:26:13.048Z,44.65
2019-05-13T11:27:12.646Z,44.75
2019-05-13T11:28:12.671Z,44.14
2019-05-13T11:29:12.634Z,44.24
2019-05-13T11:30:12.642Z,43.84
2019-05-13T11:31:12.645Z,44.55
2019-05-13T11:32:13.407Z,45.85
2019-05-13T11:33:12.607Z,46.77
2019-05-13T11:34:12.744Z,47.49
2019-05-13T11:35:13.158Z,46.08
2019-05-13T11:36:18.692Z,44.63
2019-05-13T11:37:13.576Z,46.26
2019-05-13T11:38:12.551Z,42.18
2019-05-13T11:39:13.142Z,39.92
2019-05-13T11:40:12.537Z,39.94
2019-05-13T11:41:12.497Z,38.31
2019-05-13T11:43:13.481Z,39.53
2019-05-13T11:44:16.425Z,39.03
2019-05-13T11:45:12.486Z,38.92
2019-05-13T11:46:12.454Z,39.64
2019-05-13T11:47:12.843Z,40.66
2019-05-13T11:48:13.259Z,41.05
2019-05-13T11:49:12.580Z,40.84
2019-05-13T11:50:12.564Z,40.86
2019-05-13T11:51:13.064Z,41.35
2019-05-13T11:52:12.418Z,41.86
2019-05-13T11:53:32.653Z,41.05
2019-05-13T11:54:14.238Z,40.84
2019-05-13T11:55:13.165Z,40.33
2019-05-13T11:56:12.347Z,40.43
2019-05-13T11:57:12.750Z,41.25
2019-05-13T11:58:13.929Z,41.02
2019-05-13T11:59:13.952Z,41.13
2019-05-13T12:00:13.518Z,40.70
2019-05-13T12:01:12.337Z,40.70
2019-05-13T12:02:13.654Z,40.80
2019-05-13T12:03:12.257Z,41.49
2019-05-13T12:04:12.241Z,39.56
2019-05-13T12:05:12.227Z,39.17
2019-05-13T12:06:12.337Z,40.48
2019-05-13T12:07:13.219Z,40.68
2019-05-13T12:08:12.800Z,39.66
2019-05-13T12:09:13.186Z,39.66
2019-05-13T12:10:12.521Z,38.85
2019-05-13T12:11:13.974Z,40.19
2019-05-13T12:12:13.208Z,40.70
2019-05-13T12:13:12.673Z,41.39
2019-05-13T12:14:37.237Z,40.88
2019-05-13T12:15:28.755Z,40.60
2019-05-13T12:16:13.213Z,39.90
2019-05-13T12:17:14.230Z,38.70
2019-05-13T12:18:12.800Z,39.33
2019-05-13T12:19:12.159Z,39.86
2019-05-13T12:20:12.300Z,40.57
2019-05-13T12:21:12.434Z,41.20
2019-05-13T12:22:13.203Z,41.41
2019-05-13T12:23:13.035Z,41.51
2019-05-13T12:24:12.022Z,41.71
2019-05-13T12:25:13.779Z,41.51
2019-05-13T12:26:12.909Z,42.02
2019-05-13T12:27:11.994Z,41.61
2019-05-13T12:28:11.996Z,41.41
2019-05-13T12:29:18.713Z,41.41
2019-05-13T12:30:12.978Z,41.89
2019-05-13T12:31:12.302Z,40.57
2019-05-13T12:32:13.497Z,40.66
2019-05-13T12:33:13.532Z,39.62
2019-05-13T12:34:13.090Z,38.58
2019-05-13T12:35:13.314Z,38.58
2019-05-13T12:36:18.014Z,39.09
2019-05-13T12:37:12.937Z,39.29
2019-05-13T12:38:13.239Z,39.80
2019-05-13T12:39:14.271Z,39.60
2019-05-13T12:40:11.855Z,40.30
2019-05-13T12:41:12.906Z,38.89
2019-05-13T12:42:12.661Z,38.89
2019-05-13T12:43:13.309Z,38.60
2019-05-13T12:44:12.990Z,39.21
2019-05-13T12:45:14.410Z,40.03
2019-05-13T12:46:12.495Z,39.62
2019-05-13T12:47:12.284Z,38.60
2019-05-13T12:48:13.937Z,38.49
2019-05-13T12:49:14.349Z,38.92
2019-05-13T12:50:13.664Z,39.23
2019-05-13T12:51:13.184Z,39.33
2019-05-13T12:52:13.048Z,39.42
2019-05-13T12:53:12.760Z,38.58